Portada
METAR-TAF:

METAR-TAF

Aeroports :

Aizawl, Índia

latitud: 23-50-18N, longitud: 92-37-13E, altitud: 405 m

Observació

L'informe es va fer fa 9 hores i 34 minuts, a les 11:00 UTC
Vent calma
Temperatura 26°C
Humitat 84%
Pressió 1014 hPa
Visibilitat: 3000 m
Núvols disperses a una alçada de 1800 ft
Núvols disperses a una alçada de 2500 ft
boirina

METAR: VELP 161100Z 00000KT 3000 BR SCT018 SCT025 26/23 Q1014 NOSIG

Hora: 02:04 (20:34 UTC)

Pronòstic

L'informe es va fer fa 12 hores i 34 minuts, a les 08:00 UTC
Pronòstic vàlid del 16 a les 09 UTC al 16 a les 18 UTC
Vent 3 kt del Nord/Nord-Est
Visibilitat: 3000 m
Núvols disperses a una alçada de 1800 ft
Núvols disperses a una alçada de 2500 ft
Escasses núvols a una alçada de 3000 ft, Cumulonimbus.
Cel ennuvolat a una alçada de 10000 ft
boirina
Temporalment
l' 16 a les 11 UTC al 16 a les 13 UTC
Visibilitat: 2000 m
tempesta, pluja

TAF: VELP 160800Z 1609/1618 03003KT 3000 BR SCT018 SCT025 FEW030CB BKN100 TEMPO 1611/1613 2000 -TSRA

Observacions i pronòstics meteorològics de més de 4000 aeroports (METAR i TAF).

Les estacions disponibles són els punts grocs i vermells al mapa.

Posi el ratolí al punt desitjat per veure el nom de l'estació.

Feu clic per veure les observacions i els pronòstics meteorològics.

Per canviar el mapa: feu clic els botons verds amb una creu de color negre per apropar; al botó verd amb un guió per allunyar la imatge; o en les fletxes verdes per a mapes adjacents.


METAR-TAF: